sensor_id;sensor_type;location;lat;lon;timestamp;pressure;altitude;pressure_sealevel;temperature;humidity
49979;BME280;35869;50.990;6.962;2023-01-25T00:03:28;103366.38;;;1.82;97.75
49979;BME280;35869;50.990;6.962;2023-01-25T00:08:29;103364.25;;;1.94;97.96
49979;BME280;35869;50.990;6.962;2023-01-25T00:13:29;103360.91;;;1.97;96.18
49979;BME280;35869;50.990;6.962;2023-01-25T00:18:30;103365.47;;;2.05;98.91
49979;BME280;35869;50.990;6.962;2023-01-25T00:23:33;103360.91;;;1.97;99.17
49979;BME280;35869;50.990;6.962;2023-01-25T00:28:33;103354.03;;;1.96;96.77
49979;BME280;35869;50.990;6.962;2023-01-25T00:33:39;103355.31;;;1.83;97.23
49979;BME280;35869;50.990;6.962;2023-01-25T00:38:42;103345.13;;;1.86;97.36
49979;BME280;35869;50.990;6.962;2023-01-25T00:43:43;103338.69;;;1.97;96.27
49979;BME280;35869;50.990;6.962;2023-01-25T00:48:43;103333.84;;;1.81;96.92
49979;BME280;35869;50.990;6.962;2023-01-25T00:53:43;103331.59;;;1.90;95.96
49979;BME280;35869;50.990;6.962;2023-01-25T00:58:43;103325.44;;;1.85;97.54
49979;BME280;35869;50.990;6.962;2023-01-25T01:03:44;103315.56;;;1.96;99.49
49979;BME280;35869;50.990;6.962;2023-01-25T01:08:44;103312.13;;;1.95;99.40
49979;BME280;35869;50.990;6.962;2023-01-25T01:13:44;103319.84;;;1.97;100.00
49979;BME280;35869;50.990;6.962;2023-01-25T01:18:44;103319.00;;;1.96;100.00
49979;BME280;35869;50.990;6.962;2023-01-25T01:23:45;103319.97;;;2.00;100.00
49979;BME280;35869;50.990;6.962;2023-01-25T01:28:45;103316.50;;;1.99;100.00
49979;BME280;35869;50.990;6.962;2023-01-25T01:33:53;103319.91;;;1.98;99.79
49979;BME280;35869;50.990;6.962;2023-01-25T01:38:54;103322.41;;;1.97;100.00
49979;BME280;35869;50.990;6.962;2023-01-25T01:43:54;103317.28;;;1.97;100.00
49979;BME280;35869;50.990;6.962;2023-01-25T01:48:58;103326.06;;;2.03;100.00
49979;BME280;35869;50.990;6.962;2023-01-25T01:54:04;103325.97;;;2.00;100.00
49979;BME280;35869;50.990;6.962;2023-01-25T01:59:08;103322.59;;;2.01;100.00
49979;BME280;35869;50.990;6.962;2023-01-25T02:04:09;103314.06;;;2.02;100.00
49979;BME280;35869;50.990;6.962;2023-01-25T02:09:11;103318.06;;;1.94;100.00
49979;BME280;35869;50.990;6.962;2023-01-25T02:14:14;103312.78;;;1.90;100.00
49979;BME280;35869;50.990;6.962;2023-01-25T02:24:36;103312.94;;;1.94;100.00
49979;BME280;35869;50.990;6.962;2023-01-25T02:29:39;103301.88;;;1.95;100.00
49979;BME280;35869;50.990;6.962;2023-01-25T02:34:40;103296.41;;;1.86;99.63
49979;BME280;35869;50.990;6.962;2023-01-25T02:39:40;103298.03;;;1.82;99.66
49979;BME280;35869;50.990;6.962;2023-01-25T02:44:41;103298.91;;;1.83;100.00
49979;BME280;35869;50.990;6.962;2023-01-25T02:49:41;103292.53;;;1.72;99.79
49979;BME280;35869;50.990;6.962;2023-01-25T02:54:42;103281.47;;;1.73;100.00
49979;BME280;35869;50.990;6.962;2023-01-25T02:59:42;103280.63;;;1.74;99.43
49979;BME280;35869;50.990;6.962;2023-01-25T03:04:42;103293.78;;;1.83;99.71
49979;BME280;35869;50.990;6.962;2023-01-25T03:09:42;103288.91;;;1.65;100.00
49979;BME280;35869;50.990;6.962;2023-01-25T03:14:42;103280.94;;;1.57;100.00
49979;BME280;35869;50.990;6.962;2023-01-25T03:19:43;103278.47;;;1.60;100.00
49979;BME280;35869;50.990;6.962;2023-01-25T03:24:43;103285.03;;;1.52;99.99
49979;BME280;35869;50.990;6.962;2023-01-25T03:29:44;103287.38;;;1.46;100.00
49979;BME280;35869;50.990;6.962;2023-01-25T03:34:44;103291.78;;;1.50;100.00
49979;BME280;35869;50.990;6.962;2023-01-25T03:39:44;103293.88;;;1.60;100.00
49979;BME280;35869;50.990;6.962;2023-01-25T03:44:44;103294.03;;;1.65;100.00
49979;BME280;35869;50.990;6.962;2023-01-25T03:49:45;103271.50;;;1.56;100.00
49979;BME280;35869;50.990;6.962;2023-01-25T03:54:45;103277.78;;;1.65;100.00
49979;BME280;35869;50.990;6.962;2023-01-25T03:59:45;103276.34;;;1.73;100.00
49979;BME280;35869;50.990;6.962;2023-01-25T04:04:45;103264.63;;;1.81;100.00
49979;BME280;35869;50.990;6.962;2023-01-25T04:09:45;103256.13;;;1.82;100.00
49979;BME280;35869;50.990;6.962;2023-01-25T04:14:46;103255.41;;;1.60;100.00
49979;BME280;35869;50.990;6.962;2023-01-25T04:19:46;103241.81;;;1.63;100.00
49979;BME280;35869;50.990;6.962;2023-01-25T04:24:46;103232.81;;;1.76;100.00
49979;BME280;35869;50.990;6.962;2023-01-25T04:29:46;103230.59;;;1.59;99.74
49979;BME280;35869;50.990;6.962;2023-01-25T04:34:46;103224.41;;;1.53;100.00
49979;BME280;35869;50.990;6.962;2023-01-25T04:39:47;103219.81;;;1.70;100.00
49979;BME280;35869;50.990;6.962;2023-01-25T04:44:47;103214.66;;;1.68;100.00
49979;BME280;35869;50.990;6.962;2023-01-25T04:49:47;103212.25;;;1.73;100.00
49979;BME280;35869;50.990;6.962;2023-01-25T04:54:47;103211.53;;;1.77;100.00
49979;BME280;35869;50.990;6.962;2023-01-25T04:59:47;103208.88;;;1.75;100.00
49979;BME280;35869;50.990;6.962;2023-01-25T05:04:48;103213.78;;;1.68;100.00
49979;BME280;35869;50.990;6.962;2023-01-25T05:09:48;103202.78;;;1.70;100.00
49979;BME280;35869;50.990;6.962;2023-01-25T05:14:48;103201.81;;;1.68;100.00
49979;BME280;35869;50.990;6.962;2023-01-25T05:19:48;103199.31;;;1.70;100.00
49979;BME280;35869;50.990;6.962;2023-01-25T05:24:48;103190.75;;;1.69;100.00
49979;BME280;35869;50.990;6.962;2023-01-25T05:29:49;103190.00;;;1.72;100.00
49979;BME280;35869;50.990;6.962;2023-01-25T05:34:49;103187.94;;;1.62;100.00
49979;BME280;35869;50.990;6.962;2023-01-25T05:39:50;103181.16;;;1.64;100.00
49979;BME280;35869;50.990;6.962;2023-01-25T05:44:50;103185.53;;;1.66;100.00
49979;BME280;35869;50.990;6.962;2023-01-25T05:49:50;103189.69;;;1.63;100.00
49979;BME280;35869;50.990;6.962;2023-01-25T05:54:50;103182.09;;;1.66;100.00
49979;BME280;35869;50.990;6.962;2023-01-25T05:59:50;103172.88;;;1.71;100.00
49979;BME280;35869;50.990;6.962;2023-01-25T06:04:51;103182.03;;;1.64;100.00
49979;BME280;35869;50.990;6.962;2023-01-25T06:09:51;103179.44;;;1.63;100.00
49979;BME280;35869;50.990;6.962;2023-01-25T06:14:51;103183.00;;;1.68;100.00
49979;BME280;35869;50.990;6.962;2023-01-25T06:19:51;103173.41;;;1.60;100.00
49979;BME280;35869;50.990;6.962;2023-01-25T06:24:51;103165.00;;;1.65;100.00
49979;BME280;35869;50.990;6.962;2023-01-25T06:29:52;103168.31;;;1.62;100.00
49979;BME280;35869;50.990;6.962;2023-01-25T06:34:52;103163.22;;;1.64;100.00
49979;BME280;35869;50.990;6.962;2023-01-25T06:39:52;103165.72;;;1.60;100.00
49979;BME280;35869;50.990;6.962;2023-01-25T06:44:52;103163.22;;;1.64;100.00
49979;BME280;35869;50.990;6.962;2023-01-25T06:49:52;103167.06;;;1.76;100.00
49979;BME280;35869;50.990;6.962;2023-01-25T06:54:53;103161.59;;;1.66;100.00
49979;BME280;35869;50.990;6.962;2023-01-25T06:59:53;103162.50;;;1.68;100.00
49979;BME280;35869;50.990;6.962;2023-01-25T07:04:53;103165.13;;;1.69;100.00
49979;BME280;35869;50.990;6.962;2023-01-25T07:09:53;103176.00;;;1.62;100.00
49979;BME280;35869;50.990;6.962;2023-01-25T07:14:53;103175.25;;;1.65;100.00
49979;BME280;35869;50.990;6.962;2023-01-25T07:19:54;103174.09;;;1.56;100.00
49979;BME280;35869;50.990;6.962;2023-01-25T07:24:54;103170.78;;;1.59;100.00
49979;BME280;35869;50.990;6.962;2023-01-25T07:29:54;103174.16;;;1.58;100.00
49979;BME280;35869;50.990;6.962;2023-01-25T07:34:54;103171.69;;;1.61;100.00
49979;BME280;35869;50.990;6.962;2023-01-25T07:39:54;103170.53;;;1.51;100.00
49979;BME280;35869;50.990;6.962;2023-01-25T07:44:55;103168.97;;;1.56;100.00
49979;BME280;35869;50.990;6.962;2023-01-25T07:49:55;103170.53;;;1.51;100.00
49979;BME280;35869;50.990;6.962;2023-01-25T07:54:55;103173.19;;;1.54;100.00
49979;BME280;35869;50.990;6.962;2023-01-25T07:59:55;103170.84;;;1.60;100.00
49979;BME280;35869;50.990;6.962;2023-01-25T08:04:56;103160.47;;;1.57;100.00
49979;BME280;35869;50.990;6.962;2023-01-25T08:09:56;103149.47;;;1.60;100.00
49979;BME280;35869;50.990;6.962;2023-01-25T08:14:56;103156.31;;;1.61;100.00
49979;BME280;35869;50.990;6.962;2023-01-25T08:19:58;103160.38;;;1.54;100.00
49979;BME280;35869;50.990;6.962;2023-01-25T08:24:58;103171.34;;;1.50;100.00
49979;BME280;35869;50.990;6.962;2023-01-25T08:29:58;103164.78;;;1.58;100.00
49979;BME280;35869;50.990;6.962;2023-01-25T08:34:58;103158.06;;;1.62;100.00
49979;BME280;35869;50.990;6.962;2023-01-25T08:39:59;103144.59;;;1.69;100.00
49979;BME280;35869;50.990;6.962;2023-01-25T08:44:59;103148.59;;;1.59;100.00
49979;BME280;35869;50.990;6.962;2023-01-25T08:49:59;103144.19;;;1.55;100.00
49979;BME280;35869;50.990;6.962;2023-01-25T08:54:59;103145.97;;;1.58;100.00
49979;BME280;35869;50.990;6.962;2023-01-25T09:00:00;103134.94;;;1.60;100.00
49979;BME280;35869;50.990;6.962;2023-01-25T09:05:00;103142.69;;;1.62;100.00
49979;BME280;35869;50.990;6.962;2023-01-25T09:10:00;103141.31;;;1.73;100.00
49979;BME280;35869;50.990;6.962;2023-01-25T09:15:02;103130.91;;;1.69;100.00
49979;BME280;35869;50.990;6.962;2023-01-25T09:20:02;103136.50;;;1.55;100.00
49979;BME280;35869;50.990;6.962;2023-01-25T09:25:03;103130.66;;;1.59;100.00
49979;BME280;35869;50.990;6.962;2023-01-25T09:30:05;103122.97;;;1.59;100.00
49979;BME280;35869;50.990;6.962;2023-01-25T09:35:05;103117.84;;;1.59;100.00
49979;BME280;35869;50.990;6.962;2023-01-25T09:40:16;103111.78;;;1.57;100.00
49979;BME280;35869;50.990;6.962;2023-01-25T09:45:36;103112.63;;;1.58;100.00
49979;BME280;35869;50.990;6.962;2023-01-25T09:50:45;103112.72;;;1.59;100.00
49979;BME280;35869;50.990;6.962;2023-01-25T09:55:58;103099.16;;;1.64;100.00
49979;BME280;35869;50.990;6.962;2023-01-25T10:01:10;103096.94;;;1.47;100.00
49979;BME280;35869;50.990;6.962;2023-01-25T10:06:12;103093.72;;;1.53;100.00
49979;BME280;35869;50.990;6.962;2023-01-25T10:11:26;103088.59;;;1.53;100.00
49979;BME280;35869;50.990;6.962;2023-01-25T10:21:53;103073.09;;;1.50;100.00
49979;BME280;35869;50.990;6.962;2023-01-25T10:27:00;103076.75;;;1.58;100.00
49979;BME280;35869;50.990;6.962;2023-01-25T10:32:13;103067.28;;;1.55;100.00
49979;BME280;35869;50.990;6.962;2023-01-25T10:37:21;103059.75;;;1.60;100.00
49979;BME280;35869;50.990;6.962;2023-01-25T10:42:25;103049.53;;;1.62;100.00
49979;BME280;35869;50.990;6.962;2023-01-25T10:47:32;103040.00;;;1.57;100.00
49979;BME280;35869;50.990;6.962;2023-01-25T10:52:34;103042.56;;;1.57;100.00
49979;BME280;35869;50.990;6.962;2023-01-25T10:57:34;103030.88;;;1.66;100.00
49979;BME280;35869;50.990;6.962;2023-01-25T11:07:40;103025.78;;;1.67;100.00
49979;BME280;35869;50.990;6.962;2023-01-25T11:12:40;103019.06;;;1.71;100.00
49979;BME280;35869;50.990;6.962;2023-01-25T11:17:40;103010.38;;;1.66;100.00
49979;BME280;35869;50.990;6.962;2023-01-25T11:22:56;103014.72;;;1.70;100.00
49979;BME280;35869;50.990;6.962;2023-01-25T11:28:10;103008.81;;;1.71;100.00
49979;BME280;35869;50.990;6.962;2023-01-25T11:33:12;102999.53;;;1.76;100.00
49979;BME280;35869;50.990;6.962;2023-01-25T11:38:14;102990.09;;;1.75;100.00
49979;BME280;35869;50.990;6.962;2023-01-25T11:59:13;102933.06;;;1.82;100.00
49979;BME280;35869;50.990;6.962;2023-01-25T12:04:54;102918.44;;;1.78;100.00
49979;BME280;35869;50.990;6.962;2023-01-25T12:10:57;102905.84;;;1.87;100.00
49979;BME280;35869;50.990;6.962;2023-01-25T12:15:49;102901.47;;;1.83;100.00
49979;BME280;35869;50.990;6.962;2023-01-25T12:26:59;102872.03;;;1.69;100.00
49979;BME280;35869;50.990;6.962;2023-01-25T12:32:10;102851.69;;;1.75;100.00
49979;BME280;35869;50.990;6.962;2023-01-25T12:37:20;102846.38;;;1.69;100.00
49979;BME280;35869;50.990;6.962;2023-01-25T12:42:28;102837.81;;;1.67;100.00
49979;BME280;35869;50.990;6.962;2023-01-25T12:47:36;102824.13;;;1.66;100.00
49979;BME280;35869;50.990;6.962;2023-01-25T12:52:45;102819.19;;;1.74;100.00
49979;BME280;35869;50.990;6.962;2023-01-25T12:57:50;102809.81;;;1.76;100.00
49979;BME280;35869;50.990;6.962;2023-01-25T13:08:13;102790.69;;;1.62;100.00
49979;BME280;35869;50.990;6.962;2023-01-25T13:13:34;102760.22;;;1.74;100.00
49979;BME280;35869;50.990;6.962;2023-01-25T13:18:35;102763.69;;;1.76;100.00
49979;BME280;35869;50.990;6.962;2023-01-25T13:28:42;102746.38;;;1.66;100.00
49979;BME280;35869;50.990;6.962;2023-01-25T13:33:42;102734.59;;;1.74;100.00
49979;BME280;35869;50.990;6.962;2023-01-25T13:38:43;102723.50;;;1.75;100.00
49979;BME280;35869;50.990;6.962;2023-01-25T13:43:45;102715.16;;;1.82;100.00
49979;BME280;35869;50.990;6.962;2023-01-25T13:48:52;102713.47;;;1.84;100.00
49979;BME280;35869;50.990;6.962;2023-01-25T13:53:56;102707.41;;;1.80;100.00
49979;BME280;35869;50.990;6.962;2023-01-25T13:58:57;102711.66;;;1.80;100.00
49979;BME280;35869;50.990;6.962;2023-01-25T14:04:02;102701.53;;;1.84;100.00
49979;BME280;35869;50.990;6.962;2023-01-25T14:09:05;102701.41;;;1.80;100.00
49979;BME280;35869;50.990;6.962;2023-01-25T14:14:18;102687.03;;;1.86;100.00
49979;BME280;35869;50.990;6.962;2023-01-25T14:19:21;102692.13;;;1.85;100.00
49979;BME280;35869;50.990;6.962;2023-01-25T14:24:21;102682.88;;;1.92;100.00
49979;BME280;35869;50.990;6.962;2023-01-25T14:29:22;102682.75;;;1.85;100.00
49979;BME280;35869;50.990;6.962;2023-01-25T14:34:24;102682.03;;;1.93;100.00
49979;BME280;35869;50.990;6.962;2023-01-25T14:39:27;102672.38;;;1.81;100.00
49979;BME280;35869;50.990;6.962;2023-01-25T14:44:28;102669.50;;;1.67;100.00
49979;BME280;35869;50.990;6.962;2023-01-25T14:49:29;102668.84;;;1.76;100.00
49979;BME280;35869;50.990;6.962;2023-01-25T14:54:34;102667.38;;;1.87;100.00
49979;BME280;35869;50.990;6.962;2023-01-25T14:59:49;102665.66;;;1.86;100.00
49979;BME280;35869;50.990;6.962;2023-01-25T15:04:56;102666.28;;;1.76;100.00
49979;BME280;35869;50.990;6.962;2023-01-25T15:10:03;102656.22;;;1.83;100.00
49979;BME280;35869;50.990;6.962;2023-01-25T15:15:18;102662.19;;;1.82;100.00
49979;BME280;35869;50.990;6.962;2023-01-25T15:20:37;102646.88;;;1.87;100.00
49979;BME280;35869;50.990;6.962;2023-01-25T15:25:51;102642.47;;;1.81;100.00
49979;BME280;35869;50.990;6.962;2023-01-25T15:30:52;102641.69;;;1.84;100.00
49979;BME280;35869;50.990;6.962;2023-01-25T15:35:53;102619.47;;;1.83;100.00
49979;BME280;35869;50.990;6.962;2023-01-25T15:40:53;102616.03;;;1.82;100.00
49979;BME280;35869;50.990;6.962;2023-01-25T15:45:54;102596.53;;;1.91;100.00
49979;BME280;35869;50.990;6.962;2023-01-25T15:50:55;102600.53;;;1.78;100.00
49979;BME280;35869;50.990;6.962;2023-01-25T15:56:00;102598.75;;;1.75;100.00
49979;BME280;35869;50.990;6.962;2023-01-25T16:01:02;102592.00;;;1.79;100.00
49979;BME280;35869;50.990;6.962;2023-01-25T16:06:06;102596.19;;;1.75;100.00
49979;BME280;35869;50.990;6.962;2023-01-25T16:11:13;102593.69;;;1.77;100.00
49979;BME280;35869;50.990;6.962;2023-01-25T16:16:17;102591.06;;;1.75;100.00
49979;BME280;35869;50.990;6.962;2023-01-25T16:21:18;102581.50;;;1.67;100.00
49979;BME280;35869;50.990;6.962;2023-01-25T16:26:24;102590.22;;;1.75;100.00
49979;BME280;35869;50.990;6.962;2023-01-25T16:31:25;102589.34;;;1.74;100.00
49979;BME280;35869;50.990;6.962;2023-01-25T16:36:25;102577.97;;;1.62;100.00
49979;BME280;35869;50.990;6.962;2023-01-25T16:41:25;102577.16;;;1.64;100.00
49979;BME280;35869;50.990;6.962;2023-01-25T16:46:25;102585.81;;;1.69;100.00
49979;BME280;35869;50.990;6.962;2023-01-25T16:51:27;102575.41;;;1.62;100.00
49979;BME280;35869;50.990;6.962;2023-01-25T16:56:28;102583.91;;;1.60;100.00
49979;BME280;35869;50.990;6.962;2023-01-25T17:01:29;102580.53;;;1.63;100.00
49979;BME280;35869;50.990;6.962;2023-01-25T17:06:31;102574.41;;;1.55;100.00
49979;BME280;35869;50.990;6.962;2023-01-25T17:11:35;102559.81;;;1.52;100.00
49979;BME280;35869;50.990;6.962;2023-01-25T17:16:35;102564.06;;;1.52;100.00
49979;BME280;35869;50.990;6.962;2023-01-25T17:21:36;102562.34;;;1.52;100.00
49979;BME280;35869;50.990;6.962;2023-01-25T17:26:36;102559.63;;;1.45;100.00
49979;BME280;35869;50.990;6.962;2023-01-25T17:31:36;102567.28;;;1.43;100.00
49979;BME280;35869;50.990;6.962;2023-01-25T17:36:37;102572.41;;;1.43;100.00
49979;BME280;35869;50.990;6.962;2023-01-25T17:41:37;102554.53;;;1.46;100.00
49979;BME280;35869;50.990;6.962;2023-01-25T17:46:37;102544.00;;;1.34;100.00
49979;BME280;35869;50.990;6.962;2023-01-25T17:51:38;102542.44;;;1.41;100.00
49979;BME280;35869;50.990;6.962;2023-01-25T17:56:38;102556.03;;;1.37;100.00
49979;BME280;35869;50.990;6.962;2023-01-25T18:01:39;102535.34;;;1.29;100.00
49979;BME280;35869;50.990;6.962;2023-01-25T18:06:39;102538.22;;;1.41;100.00
49979;BME280;35869;50.990;6.962;2023-01-25T18:11:39;102548.25;;;1.32;100.00
49979;BME280;35869;50.990;6.962;2023-01-25T18:16:41;102542.22;;;1.30;100.00
49979;BME280;35869;50.990;6.962;2023-01-25T18:21:42;102542.22;;;1.30;100.00
49979;BME280;35869;50.990;6.962;2023-01-25T18:26:42;102547.09;;;1.19;100.00
49979;BME280;35869;50.990;6.962;2023-01-25T18:31:42;102538.56;;;1.19;100.00
49979;BME280;35869;50.990;6.962;2023-01-25T18:36:42;102540.25;;;1.18;100.00
49979;BME280;35869;50.990;6.962;2023-01-25T18:41:42;102532.75;;;0.91;100.00
49979;BME280;35869;50.990;6.962;2023-01-25T18:46:43;102522.91;;;1.06;100.00
49979;BME280;35869;50.990;6.962;2023-01-25T18:51:44;102529.75;;;1.08;100.00
49979;BME280;35869;50.990;6.962;2023-01-25T18:56:44;102521.09;;;1.02;100.00
49979;BME280;35869;50.990;6.962;2023-01-25T19:01:44;102500.84;;;1.12;100.00
49979;BME280;35869;50.990;6.962;2023-01-25T19:06:44;102499.06;;;1.11;100.00
49979;BME280;35869;50.990;6.962;2023-01-25T19:11:44;102495.63;;;1.09;100.00
49979;BME280;35869;50.990;6.962;2023-01-25T19:16:45;102482.66;;;1.01;100.00
49979;BME280;35869;50.990;6.962;2023-01-25T19:21:46;102484.41;;;1.03;100.00
49979;BME280;35869;50.990;6.962;2023-01-25T19:26:46;102471.72;;;1.08;100.00
49979;BME280;35869;50.990;6.962;2023-01-25T19:31:46;102453.78;;;1.08;100.00
49979;BME280;35869;50.990;6.962;2023-01-25T19:36:46;102447.94;;;1.14;100.00
49979;BME280;35869;50.990;6.962;2023-01-25T19:41:46;102437.31;;;0.97;100.00
49979;BME280;35869;50.990;6.962;2023-01-25T19:46:47;102431.84;;;0.82;100.00
49979;BME280;35869;50.990;6.962;2023-01-25T19:51:47;102424.25;;;0.85;100.00
49979;BME280;35869;50.990;6.962;2023-01-25T19:56:48;102401.34;;;0.91;100.00
49979;BME280;35869;50.990;6.962;2023-01-25T20:01:49;102403.03;;;0.90;100.00
49979;BME280;35869;50.990;6.962;2023-01-25T20:06:50;102397.81;;;0.86;100.00
49979;BME280;35869;50.990;6.962;2023-01-25T20:11:50;102396.28;;;0.94;100.00
49979;BME280;35869;50.990;6.962;2023-01-25T20:16:50;102384.00;;;0.77;100.00
49979;BME280;35869;50.990;6.962;2023-01-25T20:21:50;102391.75;;;0.82;100.00
49979;BME280;35869;50.990;6.962;2023-01-25T20:26:51;102389.88;;;0.75;100.00
49979;BME280;35869;50.990;6.962;2023-01-25T20:31:51;102381.56;;;0.84;100.00
49979;BME280;35869;50.990;6.962;2023-01-25T20:36:51;102374.88;;;0.52;100.00
49979;BME280;35869;50.990;6.962;2023-01-25T20:41:51;102377.78;;;0.68;100.00
49979;BME280;35869;50.990;6.962;2023-01-25T20:46:51;102379.47;;;0.66;100.00
49979;BME280;35869;50.990;6.962;2023-01-25T20:51:52;102372.41;;;0.57;100.00
49979;BME280;35869;50.990;6.962;2023-01-25T20:56:52;102375.78;;;0.55;100.00
49979;BME280;35869;50.990;6.962;2023-01-25T21:01:52;102375.22;;;0.68;100.00
49979;BME280;35869;50.990;6.962;2023-01-25T21:06:52;102366.53;;;0.60;100.00
49979;BME280;35869;50.990;6.962;2023-01-25T21:11:53;102360.41;;;0.53;100.00
49979;BME280;35869;50.990;6.962;2023-01-25T21:16:53;102353.75;;;0.61;100.00
49979;BME280;35869;50.990;6.962;2023-01-25T21:21:53;102334.91;;;0.58;100.00
49979;BME280;35869;50.990;6.962;2023-01-25T21:26:53;102327.94;;;0.50;100.00
49979;BME280;35869;50.990;6.962;2023-01-25T21:31:54;102331.25;;;0.46;100.00
49979;BME280;35869;50.990;6.962;2023-01-25T21:36:54;102318.97;;;0.32;100.00
49979;BME280;35869;50.990;6.962;2023-01-25T21:41:54;102324.34;;;0.42;100.00
49979;BME280;35869;50.990;6.962;2023-01-25T21:46:54;102325.38;;;0.50;100.00
49979;BME280;35869;50.990;6.962;2023-01-25T21:51:57;102322.53;;;0.38;100.00
49979;BME280;35869;50.990;6.962;2023-01-25T21:56:58;102337.03;;;0.38;100.00
49979;BME280;35869;50.990;6.962;2023-01-25T22:01:59;102337.28;;;0.48;100.00
49979;BME280;35869;50.990;6.962;2023-01-25T22:06:59;102337.59;;;0.26;100.00
49979;BME280;35869;50.990;6.962;2023-01-25T22:11:59;102339.41;;;0.30;100.00
49979;BME280;35869;50.990;6.962;2023-01-25T22:17:00;102344.53;;;0.30;100.00
49979;BME280;35869;50.990;6.962;2023-01-25T22:22:00;102341.84;;;0.25;100.00
49979;BME280;35869;50.990;6.962;2023-01-25T22:27:26;102337.66;;;0.29;100.00
49979;BME280;35869;50.990;6.962;2023-01-25T22:32:29;102335.03;;;0.26;100.00
49979;BME280;35869;50.990;6.962;2023-01-25T22:37:29;102331.69;;;0.29;100.00
49979;BME280;35869;50.990;6.962;2023-01-25T22:42:29;102335.16;;;0.31;100.00
49979;BME280;35869;50.990;6.962;2023-01-25T22:47:29;102337.16;;;0.08;100.00
49979;BME280;35869;50.990;6.962;2023-01-25T22:52:30;102330.81;;;0.28;100.00
49979;BME280;35869;50.990;6.962;2023-01-25T22:57:30;102323.22;;;0.31;100.00
49979;BME280;35869;50.990;6.962;2023-01-25T23:02:30;102318.84;;;0.25;100.00
49979;BME280;35869;50.990;6.962;2023-01-25T23:07:30;102316.91;;;0.17;100.00
49979;BME280;35869;50.990;6.962;2023-01-25T23:12:30;102322.66;;;0.08;100.00
49979;BME280;35869;50.990;6.962;2023-01-25T23:17:32;102315.91;;;0.10;100.00
49979;BME280;35869;50.990;6.962;2023-01-25T23:22:32;102308.06;;;0.04;100.00
49979;BME280;35869;50.990;6.962;2023-01-25T23:32:45;102298.97;;;0.15;100.00
49979;BME280;35869;50.990;6.962;2023-01-25T23:37:45;102280.31;;;0.18;100.00
49979;BME280;35869;50.990;6.962;2023-01-25T23:42:46;102292.00;;;0.08;100.00
49979;BME280;35869;50.990;6.962;2023-01-25T23:47:46;102285.09;;;0.06;100.00
49979;BME280;35869;50.990;6.962;2023-01-25T23:52:46;102275.09;;;0.13;100.00
49979;BME280;35869;50.990;6.962;2023-01-25T23:57:46;102277.66;;;0.15;100.00
